METAR TAF

[Source: ADDS]
METAR
LFCR 212230Z AUTO 28011KT 9999 BKN011 OVC084 10/09 Q1025 TEMPO BKN008TCU =
LFBA 212230Z AUTO 27007KT 230V300 9999 BKN045/// BKN054/// BKN068/// ///TCU 13/10 Q1026 =
LFSL 212230Z AUTO 24003KT 180V290 CAVOK 11/10 Q1025 =
LFLW 212230Z AUTO 27006KT 240V300 9999 FEW014/// SCT045/// BKN052/// ///TCU 09/08 Q1025 =
TAF
LFCR 211700Z 2118/2218 24010KT 9999 BKN040 TEMPO 2118/2119 4000 RA BKN006 BKN013 TEMPO 2119/2218 -SHRA BKN008TCU =
LFBA 211400Z 2115/2124 27010KT 9999 BKN040 PROB40 TEMPO 2115/2121 27015G25KT 4000 SHRA SCT014TCU BKN020 =
LFSL 211400Z 2115/2124 25007KT 9999 BKN030 TEMPO 2115/2124 4000 SHRA BKN014TCU =
AMD LFLW 211529Z 2115/2124 31010KT 9999 SCT006 SCT010 BKN016 PROB40 TEMPO 2115/2124 31012G22KT 2000 -RA BKN006 =
SR / SS: 06:17 / 16:59 UTC (LFCC 2017-10-21)